createdAt,value
2024-01-29T00:01:07.105Z,4.40
2024-01-29T00:03:35.545Z,4.40
2024-01-29T00:06:03.083Z,4.40
2024-01-29T00:08:30.553Z,4.40
2024-01-29T00:10:57.941Z,4.40
2024-01-29T00:13:25.370Z,4.40
2024-01-29T00:15:52.600Z,4.40
2024-01-29T00:18:20.056Z,5.50
2024-01-29T00:20:47.477Z,4.40
2024-01-29T00:23:15.399Z,4.40
2024-01-29T00:25:42.888Z,4.40
2024-01-29T00:28:10.210Z,4.30
2024-01-29T00:30:37.535Z,4.30
2024-01-29T00:33:04.868Z,4.30
2024-01-29T00:35:32.409Z,4.30
2024-01-29T00:37:59.699Z,4.30
2024-01-29T00:40:27.320Z,4.30
2024-01-29T00:42:54.790Z,4.30
2024-01-29T00:45:22.108Z,4.30
2024-01-29T00:47:49.512Z,4.30
2024-01-29T00:50:16.867Z,4.30
2024-01-29T00:52:44.092Z,4.30
2024-01-29T00:55:11.489Z,4.30
2024-01-29T00:57:40.340Z,4.20
2024-01-29T01:00:08.163Z,4.30
2024-01-29T01:02:35.509Z,4.30
2024-01-29T01:05:03.130Z,4.20
2024-01-29T01:07:30.642Z,4.30
2024-01-29T01:09:58.289Z,4.20
2024-01-29T01:12:25.658Z,4.20
2024-01-29T01:14:53.046Z,4.20
2024-01-29T01:17:20.369Z,4.20
2024-01-29T01:19:48.238Z,4.20
2024-01-29T01:22:15.861Z,4.20
2024-01-29T01:24:43.260Z,4.20
2024-01-29T01:27:11.357Z,4.20
2024-01-29T01:29:38.634Z,4.20
2024-01-29T01:32:06.447Z,4.20
2024-01-29T01:34:33.921Z,4.20
2024-01-29T01:37:01.362Z,4.20
2024-01-29T01:39:28.790Z,4.20
2024-01-29T01:41:56.152Z,4.20
2024-01-29T01:44:23.915Z,4.20
2024-01-29T01:46:51.208Z,4.10
2024-01-29T01:49:19.379Z,4.20
2024-01-29T01:51:47.024Z,4.20
2024-01-29T01:54:14.363Z,4.20
2024-01-29T01:56:41.934Z,4.20
2024-01-29T01:59:11.056Z,4.20
2024-01-29T02:01:39.566Z,4.20
2024-01-29T02:04:07.509Z,4.20
2024-01-29T02:06:35.042Z,4.20
2024-01-29T02:09:02.420Z,4.20
2024-01-29T02:11:29.853Z,4.20
2024-01-29T02:13:57.250Z,4.20
2024-01-29T02:16:24.802Z,4.20
2024-01-29T02:18:52.161Z,4.20
2024-01-29T02:21:19.437Z,4.20
2024-01-29T02:23:47.033Z,4.20
2024-01-29T02:26:14.335Z,4.20
2024-01-29T02:28:41.647Z,4.20
2024-01-29T02:31:09.055Z,4.20
2024-01-29T02:33:36.613Z,4.20
2024-01-29T02:36:04.082Z,4.20
2024-01-29T02:38:31.507Z,4.20
2024-01-29T02:40:58.722Z,4.20
2024-01-29T02:43:25.977Z,4.20
2024-01-29T02:45:53.377Z,4.20
2024-01-29T02:48:20.885Z,4.80
2024-01-29T02:50:49.213Z,4.20
2024-01-29T02:53:16.525Z,4.20
2024-01-29T02:55:44.016Z,4.30
2024-01-29T02:58:11.416Z,4.20
2024-01-29T03:00:38.946Z,4.20
2024-01-29T03:03:06.313Z,4.20
2024-01-29T03:05:33.777Z,4.20
2024-01-29T03:08:01.320Z,4.20
2024-01-29T03:10:28.648Z,4.20
2024-01-29T03:12:59.008Z,4.20
2024-01-29T03:15:26.361Z,4.10
2024-01-29T03:17:53.978Z,4.20
2024-01-29T03:20:21.366Z,4.10
2024-01-29T03:22:48.637Z,4.10
2024-01-29T03:25:16.160Z,4.10
2024-01-29T03:27:43.625Z,4.10
2024-01-29T03:30:11.747Z,4.00
2024-01-29T03:32:39.027Z,4.10
2024-01-29T03:35:06.987Z,4.10
2024-01-29T03:37:34.251Z,4.00
2024-01-29T03:40:01.587Z,4.00
2024-01-29T03:42:28.848Z,4.00
2024-01-29T03:44:56.191Z,4.00
2024-01-29T03:47:23.421Z,4.00
2024-01-29T03:49:50.759Z,4.00
2024-01-29T03:52:18.103Z,3.90
2024-01-29T03:54:45.409Z,3.90
2024-01-29T03:57:12.964Z,3.90
2024-01-29T03:59:40.273Z,3.90
2024-01-29T04:02:07.585Z,3.90
2024-01-29T04:04:35.211Z,3.90
2024-01-29T04:07:02.700Z,3.90
2024-01-29T04:11:57.759Z,3.10
2024-01-29T04:14:25.699Z,3.80
2024-01-29T04:16:52.897Z,3.80
2024-01-29T04:19:20.438Z,3.80
2024-01-29T04:21:48.113Z,3.80
2024-01-29T04:24:16.930Z,3.80
2024-01-29T04:26:44.131Z,3.70
2024-01-29T04:29:11.731Z,3.70
2024-01-29T04:31:38.999Z,3.60
2024-01-29T04:34:06.454Z,3.60
2024-01-29T04:36:33.744Z,3.60
2024-01-29T04:39:01.009Z,3.60
2024-01-29T04:41:28.292Z,3.60
2024-01-29T04:43:55.625Z,3.60
2024-01-29T04:46:24.091Z,3.50
2024-01-29T04:48:51.669Z,3.50
2024-01-29T04:51:19.063Z,3.50
2024-01-29T04:53:46.347Z,3.50
2024-01-29T04:56:13.718Z,3.50
2024-01-29T04:58:40.921Z,3.40
2024-01-29T05:01:08.469Z,3.50
2024-01-29T05:03:37.614Z,3.40
2024-01-29T05:06:05.334Z,3.40
2024-01-29T05:08:32.672Z,3.40
2024-01-29T05:11:00.140Z,3.30
2024-01-29T05:13:27.481Z,3.30
2024-01-29T05:15:54.962Z,3.80
2024-01-29T05:18:22.472Z,3.30
2024-01-29T05:20:49.723Z,3.30
2024-01-29T05:23:17.391Z,3.30
2024-01-29T05:25:45.392Z,3.30
2024-01-29T05:28:12.843Z,3.30
2024-01-29T05:30:40.251Z,3.20
2024-01-29T05:33:24.585Z,3.20
2024-01-29T05:35:54.470Z,3.20
2024-01-29T05:38:21.716Z,3.20
2024-01-29T05:40:49.154Z,3.20
2024-01-29T05:43:16.457Z,3.20
2024-01-29T05:45:43.738Z,3.10
2024-01-29T05:48:11.210Z,4.50
2024-01-29T05:50:38.801Z,3.10
2024-01-29T05:53:06.214Z,3.00
2024-01-29T05:55:33.469Z,3.10
2024-01-29T05:58:00.754Z,3.10
2024-01-29T06:00:28.614Z,3.10
2024-01-29T06:02:56.554Z,3.10
2024-01-29T06:05:25.206Z,3.00
2024-01-29T06:07:53.388Z,3.00
2024-01-29T06:10:20.803Z,3.00
2024-01-29T06:12:48.635Z,3.00
2024-01-29T06:15:16.072Z,3.00
2024-01-29T06:17:43.826Z,3.00
2024-01-29T06:20:17.474Z,2.90
2024-01-29T06:22:47.044Z,2.90
2024-01-29T06:25:14.349Z,2.90
2024-01-29T06:27:42.267Z,2.90
2024-01-29T06:30:09.952Z,2.90
2024-01-29T06:32:37.293Z,2.90
2024-01-29T06:35:05.331Z,2.90
2024-01-29T06:37:33.822Z,2.90
2024-01-29T06:40:01.149Z,2.80
2024-01-29T06:42:28.548Z,2.80
2024-01-29T06:44:55.987Z,2.80
2024-01-29T06:47:24.559Z,3.00
2024-01-29T06:49:51.889Z,2.80
2024-01-29T06:52:19.620Z,2.80
2024-01-29T06:54:47.233Z,2.80
2024-01-29T06:57:14.722Z,2.80
2024-01-29T06:59:42.169Z,2.70
2024-01-29T07:02:10.069Z,2.70
2024-01-29T07:04:37.844Z,2.70
2024-01-29T07:07:05.438Z,2.70
2024-01-29T07:12:01.213Z,2.70
2024-01-29T07:14:28.937Z,2.70
2024-01-29T07:16:56.537Z,2.70
2024-01-29T07:19:28.691Z,2.60
2024-01-29T07:21:56.466Z,2.70
2024-01-29T07:24:24.352Z,2.60
2024-01-29T07:26:51.611Z,2.60
2024-01-29T07:29:18.864Z,2.50
2024-01-29T07:31:47.185Z,2.60
2024-01-29T07:34:15.152Z,2.50
2024-01-29T07:36:42.652Z,2.50
2024-01-29T07:39:13.725Z,2.50
2024-01-29T07:41:41.693Z,2.60
2024-01-29T07:44:09.091Z,2.50
2024-01-29T07:46:36.465Z,2.50
2024-01-29T07:49:04.971Z,2.50
2024-01-29T07:51:32.424Z,2.50
2024-01-29T07:54:00.300Z,2.50
2024-01-29T07:56:27.581Z,2.50
2024-01-29T07:58:54.879Z,2.50
2024-01-29T08:01:22.372Z,2.50
2024-01-29T08:03:50.249Z,2.50
2024-01-29T08:06:18.635Z,2.50
2024-01-29T08:08:47.444Z,2.60
2024-01-29T08:11:14.834Z,2.60
2024-01-29T08:13:42.252Z,2.50
2024-01-29T08:16:09.683Z,2.60
2024-01-29T08:18:37.490Z,2.60
2024-01-29T08:21:05.071Z,2.60
2024-01-29T08:23:32.420Z,2.60
2024-01-29T08:25:59.716Z,2.60
2024-01-29T08:28:27.226Z,2.60
2024-01-29T08:30:56.660Z,2.60
2024-01-29T08:33:27.382Z,2.70
2024-01-29T08:35:55.220Z,2.70
2024-01-29T08:38:22.711Z,2.70
2024-01-29T08:40:50.970Z,2.70
2024-01-29T08:43:20.827Z,2.70
2024-01-29T08:45:49.667Z,2.70
2024-01-29T08:50:46.574Z,2.70
2024-01-29T08:53:15.936Z,2.70
2024-01-29T08:55:45.320Z,2.70
2024-01-29T08:58:12.686Z,2.70
2024-01-29T09:00:40.032Z,2.80
2024-01-29T09:03:07.381Z,2.80
2024-01-29T09:05:35.213Z,2.80
2024-01-29T09:08:10.059Z,2.80
2024-01-29T09:10:45.934Z,2.80
2024-01-29T09:13:13.673Z,5.60
2024-01-29T09:15:41.263Z,2.80
2024-01-29T09:18:08.908Z,2.80
2024-01-29T09:20:36.752Z,2.90
2024-01-29T09:23:04.093Z,2.90
2024-01-29T09:25:31.375Z,3.00
2024-01-29T09:27:59.285Z,3.00
2024-01-29T09:30:27.714Z,3.10
2024-01-29T09:33:03.251Z,3.10
2024-01-29T09:35:38.150Z,3.20
2024-01-29T09:38:05.869Z,3.20
2024-01-29T09:40:33.365Z,3.30
2024-01-29T09:43:00.616Z,3.30
2024-01-29T09:45:28.224Z,3.30
2024-01-29T09:47:55.788Z,3.30
2024-01-29T09:50:23.493Z,3.30
2024-01-29T09:52:51.403Z,3.30
2024-01-29T09:55:19.453Z,3.40
2024-01-29T09:57:46.814Z,3.40
2024-01-29T10:00:14.515Z,3.40
2024-01-29T10:02:42.711Z,3.30
2024-01-29T10:05:12.382Z,3.50
2024-01-29T10:07:43.112Z,3.50
2024-01-29T10:10:10.736Z,3.60
2024-01-29T10:12:39.364Z,3.60
2024-01-29T10:15:07.209Z,3.60
2024-01-29T10:17:34.984Z,3.70
2024-01-29T10:20:02.812Z,3.80
2024-01-29T10:22:30.694Z,3.80
2024-01-29T10:25:05.166Z,3.90
2024-01-29T10:27:32.984Z,3.90
2024-01-29T10:30:00.496Z,4.00
2024-01-29T10:32:27.779Z,4.00
2024-01-29T10:34:55.361Z,4.10
2024-01-29T10:37:23.212Z,4.20
2024-01-29T10:39:58.931Z,4.30
2024-01-29T10:42:30.024Z,4.30
2024-01-29T10:44:59.912Z,4.30
2024-01-29T10:47:31.513Z,4.50
2024-01-29T10:49:58.893Z,4.60
2024-01-29T10:52:26.378Z,4.50
2024-01-29T10:54:53.683Z,4.70
2024-01-29T10:57:21.034Z,4.80
2024-01-29T10:59:48.718Z,4.90
2024-01-29T11:02:16.479Z,4.80
2024-01-29T11:04:44.510Z,5.10
2024-01-29T11:07:17.283Z,5.00
2024-01-29T11:10:17.141Z,8.20
2024-01-29T11:12:44.669Z,5.30
2024-01-29T11:15:12.241Z,7.70
2024-01-29T11:18:00.592Z,5.40
2024-01-29T11:20:27.903Z,5.50
2024-01-29T11:23:00.293Z,5.50
2024-01-29T11:25:30.582Z,5.60
2024-01-29T11:27:57.980Z,6.60
2024-01-29T11:30:28.642Z,5.80
2024-01-29T11:33:15.594Z,5.80
2024-01-29T11:35:47.297Z,6.00
2024-01-29T11:38:15.570Z,6.10
2024-01-29T11:40:43.727Z,6.20
2024-01-29T11:43:12.393Z,6.80
2024-01-29T11:45:43.374Z,6.20
2024-01-29T11:48:14.123Z,6.30
2024-01-29T11:50:42.436Z,6.50
2024-01-29T11:53:11.841Z,6.60
2024-01-29T11:55:45.682Z,7.00
2024-01-29T11:58:17.611Z,6.70
2024-01-29T12:00:45.818Z,6.80
2024-01-29T12:03:14.071Z,6.80
2024-01-29T12:05:42.187Z,6.90
2024-01-29T12:08:15.055Z,7.00
2024-01-29T12:10:45.892Z,7.10
2024-01-29T12:13:21.059Z,7.20
2024-01-29T12:15:49.249Z,7.30
2024-01-29T12:18:18.554Z,7.80
2024-01-29T12:20:46.168Z,7.50
2024-01-29T12:23:14.564Z,9.60
2024-01-29T12:53:43.465Z,8.80
2024-01-29T12:56:10.624Z,8.90
2024-01-29T12:58:38.129Z,9.00
2024-01-29T13:01:05.980Z,9.10
2024-01-29T13:03:34.507Z,9.20
2024-01-29T13:06:03.761Z,9.30
2024-01-29T13:08:31.460Z,9.50
2024-01-29T13:11:00.619Z,9.60
2024-01-29T13:13:28.412Z,9.70
2024-01-29T13:15:57.105Z,9.80
2024-01-29T13:18:26.765Z,9.90
2024-01-29T13:20:54.198Z,10.00
2024-01-29T13:23:21.610Z,10.10
2024-01-29T13:25:49.487Z,10.20
2024-01-29T13:28:16.829Z,10.40
2024-01-29T13:30:44.448Z,10.50
2024-01-29T13:33:12.076Z,10.50
2024-01-29T13:35:40.502Z,10.70
2024-01-29T13:38:07.820Z,10.80
2024-01-29T13:40:35.140Z,10.90
2024-01-29T13:43:03.867Z,11.00
2024-01-29T13:45:31.318Z,11.10
2024-01-29T13:47:59.546Z,11.20
2024-01-29T13:50:27.197Z,11.30
2024-01-29T13:52:54.452Z,11.40
2024-01-29T13:55:21.685Z,11.50
2024-01-29T13:57:49.034Z,11.60
2024-01-29T14:00:16.840Z,11.60
2024-01-29T14:02:44.100Z,11.70
2024-01-29T14:05:11.684Z,11.80
2024-01-29T14:07:41.859Z,11.50
2024-01-29T14:10:09.250Z,12.00
2024-01-29T14:12:36.773Z,12.00
2024-01-29T14:15:05.204Z,12.00
2024-01-29T14:17:32.672Z,12.10
2024-01-29T14:20:01.373Z,12.20
2024-01-29T14:22:29.232Z,12.20
2024-01-29T14:24:57.976Z,12.30
2024-01-29T14:27:25.632Z,12.30
2024-01-29T14:29:52.951Z,12.30
2024-01-29T14:32:20.111Z,12.30
2024-01-29T14:34:47.532Z,12.40
2024-01-29T14:37:15.134Z,12.40
2024-01-29T14:39:43.658Z,12.40
2024-01-29T14:42:10.974Z,12.40
2024-01-29T14:44:38.217Z,12.40
2024-01-29T14:47:05.568Z,12.50
2024-01-29T14:49:32.813Z,12.50
2024-01-29T14:52:03.402Z,12.50
2024-01-29T14:54:31.110Z,12.50
2024-01-29T14:56:58.399Z,12.60
2024-01-29T14:59:25.943Z,12.60
2024-01-29T15:01:53.349Z,12.60
2024-01-29T15:04:20.890Z,12.60
2024-01-29T15:06:48.885Z,12.60
2024-01-29T15:09:16.393Z,12.60
2024-01-29T15:11:45.892Z,12.60
2024-01-29T15:14:13.484Z,12.70
2024-01-29T15:16:40.735Z,12.70
2024-01-29T15:19:08.180Z,12.60
2024-01-29T15:21:35.665Z,12.70
2024-01-29T15:24:03.080Z,12.70
2024-01-29T15:26:32.023Z,12.70
2024-01-29T15:28:59.250Z,12.70
2024-01-29T15:31:29.225Z,12.70
2024-01-29T15:33:56.768Z,12.70
2024-01-29T15:36:24.774Z,12.70
2024-01-29T15:38:52.245Z,12.70
2024-01-29T15:41:20.191Z,12.70
2024-01-29T15:43:47.895Z,12.70
2024-01-29T15:46:15.841Z,12.70
2024-01-29T15:48:43.352Z,12.70
2024-01-29T15:51:12.055Z,12.60
2024-01-29T15:53:39.351Z,12.70
2024-01-29T15:56:06.869Z,12.70
2024-01-29T15:58:34.208Z,12.60
2024-01-29T16:01:01.707Z,12.60
2024-01-29T16:03:29.196Z,12.60
2024-01-29T16:05:56.467Z,12.60
2024-01-29T16:08:24.037Z,12.60
2024-01-29T16:10:51.396Z,12.60
2024-01-29T16:13:18.827Z,12.60
2024-01-29T16:15:46.408Z,12.60
2024-01-29T16:18:13.777Z,12.50
2024-01-29T16:20:42.702Z,12.50
2024-01-29T16:23:10.566Z,12.40
2024-01-29T16:25:37.822Z,12.40
2024-01-29T16:28:07.662Z,12.40
2024-01-29T16:30:36.733Z,12.40
2024-01-29T16:33:04.390Z,12.30
2024-01-29T16:35:32.124Z,12.30
2024-01-29T16:37:59.551Z,12.20
2024-01-29T16:40:27.566Z,12.20
2024-01-29T16:42:54.924Z,12.10
2024-01-29T16:45:22.880Z,12.10
2024-01-29T16:47:50.170Z,12.00
2024-01-29T16:50:17.610Z,12.00
2024-01-29T16:52:45.360Z,12.00
2024-01-29T16:55:12.678Z,11.90
2024-01-29T16:57:40.108Z,11.90
2024-01-29T17:00:08.680Z,11.80
2024-01-29T17:02:36.016Z,11.80
2024-01-29T17:05:04.058Z,11.70
2024-01-29T17:07:31.838Z,11.70
2024-01-29T17:09:59.705Z,11.70
2024-01-29T17:12:27.353Z,11.60
2024-01-29T17:14:55.280Z,11.60
2024-01-29T17:17:22.791Z,11.60
2024-01-29T17:19:50.163Z,11.60
2024-01-29T17:22:17.535Z,11.50
2024-01-29T17:24:46.201Z,11.50
2024-01-29T17:27:13.813Z,11.50
2024-01-29T17:29:41.187Z,11.40
2024-01-29T17:32:09.721Z,11.40
2024-01-29T17:34:37.827Z,11.40
2024-01-29T17:37:05.196Z,11.40
2024-01-29T17:39:32.618Z,11.30
2024-01-29T17:42:00.358Z,11.30
2024-01-29T17:44:27.623Z,11.20
2024-01-29T17:46:55.854Z,11.20
2024-01-29T17:49:23.160Z,11.10
2024-01-29T17:51:50.548Z,11.10
2024-01-29T17:54:20.556Z,11.10
2024-01-29T17:56:48.398Z,11.00
2024-01-29T17:59:15.668Z,11.00
2024-01-29T18:01:43.048Z,10.90
2024-01-29T18:04:10.511Z,10.90
2024-01-29T18:06:47.794Z,10.80
2024-01-29T18:09:15.794Z,10.90
2024-01-29T18:11:43.398Z,10.80
2024-01-29T18:14:10.968Z,10.80
2024-01-29T18:16:38.241Z,10.70
2024-01-29T18:19:06.488Z,10.70
2024-01-29T18:21:34.280Z,10.70
2024-01-29T18:24:02.012Z,10.60
2024-01-29T18:26:29.885Z,10.50
2024-01-29T18:28:58.754Z,10.50
2024-01-29T18:31:26.476Z,10.50
2024-01-29T18:33:53.868Z,10.50
2024-01-29T18:36:21.606Z,10.40
2024-01-29T18:38:48.948Z,10.40
2024-01-29T18:41:19.361Z,10.30
2024-01-29T18:43:46.831Z,10.30
2024-01-29T18:46:14.841Z,10.20
2024-01-29T18:48:43.178Z,10.20
2024-01-29T18:51:10.857Z,10.10
2024-01-29T18:53:38.094Z,10.10
2024-01-29T18:56:06.173Z,10.10
2024-01-29T18:58:33.414Z,10.00
2024-01-29T19:01:00.761Z,10.00
2024-01-29T19:03:28.122Z,9.90
2024-01-29T19:05:55.513Z,9.90
2024-01-29T19:08:22.909Z,9.90
2024-01-29T19:10:50.270Z,9.80
2024-01-29T19:13:17.698Z,9.80
2024-01-29T19:15:48.178Z,9.80
2024-01-29T19:18:16.202Z,9.70
2024-01-29T19:20:43.736Z,9.70
2024-01-29T19:23:11.222Z,9.70
2024-01-29T19:25:38.986Z,9.60
2024-01-29T19:28:12.576Z,9.60
2024-01-29T19:30:40.141Z,9.50
2024-01-29T19:33:08.311Z,9.50
2024-01-29T19:35:36.033Z,9.50
2024-01-29T19:38:05.524Z,9.40
2024-01-29T19:40:36.275Z,9.40
2024-01-29T19:43:03.733Z,9.30
2024-01-29T19:45:31.043Z,9.20
2024-01-29T19:47:58.237Z,9.20
2024-01-29T19:50:25.968Z,9.20
2024-01-29T19:52:53.794Z,9.10
2024-01-29T19:55:21.264Z,9.10
2024-01-29T19:57:48.728Z,9.10
2024-01-29T20:00:16.144Z,9.00
2024-01-29T20:02:43.660Z,9.00
2024-01-29T20:05:11.146Z,8.90
2024-01-29T20:07:39.625Z,8.90
2024-01-29T20:10:07.840Z,8.80
2024-01-29T20:12:35.286Z,8.80
2024-01-29T20:15:04.084Z,8.70
2024-01-29T20:17:32.791Z,8.70
2024-01-29T20:20:00.212Z,8.60
2024-01-29T20:22:28.186Z,8.60
2024-01-29T20:24:55.540Z,8.50
2024-01-29T20:27:24.880Z,8.50
2024-01-29T20:29:52.682Z,8.50
2024-01-29T20:32:20.125Z,8.50
2024-01-29T20:34:50.219Z,8.40
2024-01-29T20:37:17.817Z,8.40
2024-01-29T20:39:45.321Z,8.30
2024-01-29T20:42:13.690Z,8.30
2024-01-29T20:44:41.329Z,8.20
2024-01-29T20:47:08.766Z,8.20
2024-01-29T20:49:36.732Z,8.20
2024-01-29T20:52:04.478Z,8.10
2024-01-29T20:54:31.820Z,8.10
2024-01-29T20:57:01.409Z,8.00
2024-01-29T20:59:29.251Z,8.00
2024-01-29T21:01:57.253Z,8.00
2024-01-29T21:04:25.008Z,7.90
2024-01-29T21:06:53.080Z,7.90
2024-01-29T21:09:20.626Z,7.80
2024-01-29T21:11:48.323Z,7.80
2024-01-29T21:14:15.648Z,7.80
2024-01-29T21:16:43.018Z,7.70
2024-01-29T21:19:10.359Z,7.70
2024-01-29T21:21:43.808Z,7.60
2024-01-29T21:24:11.104Z,7.60
2024-01-29T21:26:38.830Z,7.50
2024-01-29T21:29:06.057Z,7.50
2024-01-29T21:31:33.331Z,7.50
2024-01-29T21:34:01.068Z,7.50
2024-01-29T21:36:28.472Z,7.40
2024-01-29T21:38:55.852Z,7.40
2024-01-29T21:41:23.247Z,7.40
2024-01-29T21:43:50.663Z,7.40
2024-01-29T21:46:18.016Z,7.30
2024-01-29T21:48:45.379Z,7.30
2024-01-29T21:51:12.837Z,7.30
2024-01-29T21:53:40.058Z,7.30
2024-01-29T21:56:07.325Z,7.20
2024-01-29T21:58:34.880Z,7.20
2024-01-29T22:01:02.711Z,7.20
2024-01-29T22:03:30.141Z,7.10
2024-01-29T22:05:57.375Z,7.10
2024-01-29T22:08:26.109Z,7.10
2024-01-29T22:10:54.924Z,7.00
2024-01-29T22:13:22.278Z,7.00
2024-01-29T22:15:49.750Z,7.00
2024-01-29T22:18:17.329Z,7.00
2024-01-29T22:20:44.604Z,6.90
2024-01-29T22:23:11.908Z,6.90
2024-01-29T22:25:39.251Z,6.90
2024-01-29T22:28:06.939Z,6.80
2024-01-29T22:30:34.313Z,6.80
2024-01-29T22:33:01.546Z,6.80
2024-01-29T22:35:28.961Z,6.80
2024-01-29T22:37:56.404Z,6.70
2024-01-29T22:40:23.797Z,6.70
2024-01-29T22:42:52.638Z,6.70
2024-01-29T22:45:20.010Z,6.60
2024-01-29T22:47:47.381Z,6.60
2024-01-29T22:50:15.132Z,6.60
2024-01-29T22:52:45.655Z,6.50
2024-01-29T22:55:13.510Z,6.50
2024-01-29T22:57:41.068Z,6.50
2024-01-29T23:00:17.205Z,6.50
2024-01-29T23:02:44.654Z,6.50
2024-01-29T23:05:12.271Z,6.40
2024-01-29T23:07:39.967Z,6.40
2024-01-29T23:10:07.541Z,6.40
2024-01-29T23:12:35.646Z,6.40
2024-01-29T23:15:03.502Z,6.30
2024-01-29T23:17:31.247Z,6.30
2024-01-29T23:19:58.634Z,6.30
2024-01-29T23:22:26.041Z,6.30
2024-01-29T23:24:53.334Z,6.30
2024-01-29T23:27:21.958Z,6.30
2024-01-29T23:29:49.391Z,6.20
2024-01-29T23:32:17.170Z,6.20
2024-01-29T23:34:44.704Z,6.20
2024-01-29T23:37:21.975Z,6.10
2024-01-29T23:39:49.290Z,6.50
2024-01-29T23:42:16.961Z,6.10
2024-01-29T23:44:44.227Z,6.10
2024-01-29T23:47:11.480Z,6.10
2024-01-29T23:49:38.785Z,6.10
2024-01-29T23:52:09.837Z,6.00
2024-01-29T23:54:37.472Z,6.00
2024-01-29T23:57:05.180Z,6.00
2024-01-29T23:59:32.402Z,6.00
